createdAt,value
2018-02-24T00:00:25.714Z,20.63
2018-02-24T00:02:56.590Z,19.70
2018-02-24T00:05:27.332Z,18.63
2018-02-24T00:07:58.100Z,19.37
2018-02-24T00:10:28.881Z,18.33
2018-02-24T00:12:59.687Z,19.23
2018-02-24T00:15:30.450Z,20.90
2018-02-24T00:18:01.250Z,20.13
2018-02-24T00:20:32.009Z,19.97
2018-02-24T00:23:02.869Z,19.20
2018-02-24T00:25:33.650Z,19.80
2018-02-24T00:28:04.441Z,19.40
2018-02-24T00:30:35.215Z,21.53
2018-02-24T00:33:06.028Z,19.67
2018-02-24T00:35:36.805Z,18.33
2018-02-24T00:38:07.581Z,20.70
2018-02-24T00:40:38.394Z,19.17
2018-02-24T00:43:09.165Z,20.93
2018-02-24T00:45:39.929Z,18.90
2018-02-24T00:48:10.728Z,19.60
2018-02-24T00:50:41.521Z,18.10
2018-02-24T00:53:12.322Z,18.90
2018-02-24T00:55:43.106Z,21.47
2018-02-24T00:58:13.905Z,19.63
2018-02-24T01:00:44.679Z,19.30
2018-02-24T01:03:15.444Z,20.33
2018-02-24T01:05:46.226Z,22.17
2018-02-24T01:08:17.045Z,18.93
2018-02-24T01:10:47.809Z,20.47
2018-02-24T01:13:18.577Z,21.43
2018-02-24T01:15:49.341Z,19.70
2018-02-24T01:18:20.125Z,22.57
2018-02-24T01:20:50.889Z,20.07
2018-02-24T01:23:21.684Z,20.30
2018-02-24T01:25:52.444Z,21.27
2018-02-24T01:28:23.264Z,20.87
2018-02-24T01:30:54.058Z,20.73
2018-02-24T01:33:24.856Z,20.10
2018-02-24T01:35:55.628Z,21.57
2018-02-24T01:38:26.429Z,18.73
2018-02-24T01:40:57.189Z,20.10
2018-02-24T01:43:27.961Z,20.40
2018-02-24T01:45:58.720Z,19.50
2018-02-24T01:48:29.505Z,20.43
2018-02-24T01:51:00.297Z,22.23
2018-02-24T01:53:31.098Z,20.53
2018-02-24T01:56:01.862Z,21.83
2018-02-24T01:58:32.636Z,20.40
2018-02-24T02:01:04.456Z,19.67
2018-02-24T02:03:35.234Z,20.40
2018-02-24T02:06:06.009Z,19.77
2018-02-24T02:08:36.797Z,20.70
2018-02-24T02:11:07.562Z,20.50
2018-02-24T02:13:38.357Z,18.53
2018-02-24T02:16:09.129Z,19.73
2018-02-24T02:18:39.951Z,19.83
2018-02-24T02:21:10.761Z,18.83
2018-02-24T02:23:41.552Z,19.90
2018-02-24T02:26:12.333Z,21.90
2018-02-24T02:28:43.117Z,22.07
2018-02-24T02:31:13.885Z,18.90
2018-02-24T02:33:44.667Z,21.10
2018-02-24T02:36:15.464Z,18.23
2018-02-24T02:38:46.279Z,20.03
2018-02-24T02:41:17.085Z,18.60
2018-02-24T02:43:47.978Z,20.50
2018-02-24T02:46:18.755Z,20.03
2018-02-24T02:48:49.547Z,19.27
2018-02-24T02:51:20.325Z,18.37
2018-02-24T02:53:51.118Z,20.60
2018-02-24T02:56:21.897Z,18.97
2018-02-24T02:58:52.802Z,21.17
2018-02-24T03:01:23.587Z,19.97
2018-02-24T03:04:01.299Z,19.43
2018-02-24T03:06:32.141Z,19.60
2018-02-24T03:09:05.084Z,17.60
2018-02-24T03:11:42.833Z,22.00
2018-02-24T03:14:13.621Z,19.45
2018-02-24T03:16:44.410Z,20.70
2018-02-24T03:19:15.213Z,19.43
2018-02-24T03:21:45.989Z,18.47
2018-02-24T03:24:16.765Z,19.57
2018-02-24T03:26:47.535Z,18.97
2018-02-24T03:29:18.317Z,20.60
2018-02-24T03:31:49.098Z,20.80
2018-02-24T03:34:19.901Z,18.97
2018-02-24T03:36:50.673Z,18.07
2018-02-24T03:39:21.450Z,19.40
2018-02-24T03:41:54.313Z,19.37
2018-02-24T03:44:25.109Z,17.12
2018-02-24T03:46:55.895Z,18.73
2018-02-24T03:49:26.670Z,20.73
2018-02-24T03:51:57.444Z,16.60
2018-02-24T03:54:28.251Z,18.07
2018-02-24T03:56:59.019Z,18.57
2018-02-24T03:59:33.797Z,21.00
2018-02-24T04:02:04.568Z,17.75
2018-02-24T04:04:35.350Z,18.27
2018-02-24T04:07:06.125Z,15.57
2018-02-24T04:09:36.969Z,17.93
2018-02-24T04:12:07.749Z,18.63
2018-02-24T04:14:38.552Z,15.83
2018-02-24T04:17:09.354Z,16.70
2018-02-24T04:19:40.144Z,19.50
2018-02-24T04:22:10.947Z,18.90
2018-02-24T04:24:41.725Z,17.70
2018-02-24T04:27:12.506Z,18.13
2018-02-24T04:29:43.316Z,17.40
2018-02-24T04:32:14.093Z,19.63
2018-02-24T04:34:44.909Z,17.83
2018-02-24T04:37:15.697Z,18.37
2018-02-24T04:39:46.494Z,16.70
2018-02-24T04:42:17.284Z,16.70
2018-02-24T04:44:48.095Z,17.07
2018-02-24T04:47:18.875Z,17.07
2018-02-24T04:49:49.650Z,19.50
2018-02-24T04:52:20.412Z,17.70
2018-02-24T04:54:51.185Z,17.20
2018-02-24T04:57:21.957Z,18.00
2018-02-24T04:59:52.760Z,17.47
2018-02-24T05:02:23.521Z,15.77
2018-02-24T05:04:54.300Z,15.67
2018-02-24T05:07:25.065Z,16.60
2018-02-24T05:09:55.854Z,17.40
2018-02-24T05:12:26.618Z,17.73
2018-02-24T05:14:57.440Z,18.87
2018-02-24T05:17:28.230Z,19.80
2018-02-24T05:19:59.024Z,19.27
2018-02-24T05:22:29.829Z,15.97
2018-02-24T05:25:00.662Z,17.87
2018-02-24T05:27:31.486Z,18.90
2018-02-24T05:30:02.343Z,18.83
2018-02-24T05:32:33.138Z,17.27
2018-02-24T05:35:03.916Z,18.07
2018-02-24T05:37:34.677Z,18.50
2018-02-24T05:40:05.469Z,18.90
2018-02-24T05:42:36.237Z,16.53
2018-02-24T05:45:07.018Z,17.37
2018-02-24T05:47:37.792Z,18.00
2018-02-24T05:50:08.568Z,18.53
2018-02-24T05:52:39.308Z,16.13
2018-02-24T05:55:10.109Z,17.30
2018-02-24T05:57:40.873Z,18.13
2018-02-24T06:00:11.648Z,18.30
2018-02-24T06:02:42.421Z,17.37
2018-02-24T06:05:13.287Z,18.20
2018-02-24T06:07:44.082Z,17.07
2018-02-24T06:10:14.882Z,18.87
2018-02-24T06:12:45.655Z,16.83
2018-02-24T06:15:16.430Z,15.93
2018-02-24T06:17:47.201Z,19.40
2018-02-24T06:20:18.002Z,17.90
2018-02-24T06:22:48.768Z,18.80
2018-02-24T06:25:19.544Z,20.07
2018-02-24T06:27:50.330Z,19.23
2018-02-24T06:30:21.133Z,18.87
2018-02-24T06:32:51.893Z,18.53
2018-02-24T06:35:22.671Z,16.53
2018-02-24T06:37:53.432Z,17.43
2018-02-24T06:40:24.232Z,17.83
2018-02-24T06:42:55.000Z,17.63
2018-02-24T06:45:26.874Z,17.57
2018-02-24T06:47:57.618Z,17.33
2018-02-24T06:50:28.429Z,17.00
2018-02-24T06:52:59.180Z,20.10
2018-02-24T06:55:29.965Z,16.97
2018-02-24T06:58:00.745Z,11.77
2018-02-24T07:00:31.513Z,17.03
2018-02-24T07:03:02.277Z,16.97
2018-02-24T07:05:34.154Z,17.30
2018-02-24T07:08:04.904Z,15.25
2018-02-24T07:10:35.669Z,14.53
2018-02-24T07:13:06.420Z,16.73
2018-02-24T07:15:37.215Z,15.00
2018-02-24T07:18:07.995Z,17.20
2018-02-24T07:20:38.812Z,21.50
2018-02-24T07:23:09.573Z,17.20
2018-02-24T07:25:40.368Z,16.13
2018-02-24T07:28:11.157Z,17.33
2018-02-24T07:30:41.953Z,16.90
2018-02-24T07:33:12.721Z,16.30
2018-02-24T07:35:43.581Z,15.23
2018-02-24T07:38:15.426Z,18.60
2018-02-24T07:40:46.234Z,18.00
2018-02-24T07:43:18.021Z,13.37
2018-02-24T07:45:48.877Z,13.93
2018-02-24T07:48:20.949Z,15.43
2018-02-24T07:50:51.752Z,16.37
2018-02-24T08:08:39.385Z,14.18
2018-02-24T08:11:10.217Z,15.67
2018-02-24T08:13:43.049Z,17.73
2018-02-24T08:16:13.809Z,15.30
2018-02-24T08:18:44.593Z,16.27
2018-02-24T08:21:15.409Z,18.00
2018-02-24T08:23:46.268Z,13.70
2018-02-24T08:26:17.084Z,14.60
2018-02-24T08:31:55.755Z,14.38
2018-02-24T08:34:26.509Z,16.57
2018-02-24T08:36:57.290Z,15.53
2018-02-24T08:39:29.168Z,15.37
2018-02-24T08:41:59.934Z,13.55
2018-02-24T08:44:30.676Z,13.93
2018-02-24T08:47:01.438Z,14.67
2018-02-24T08:49:32.314Z,12.10
2018-02-24T08:52:03.070Z,13.50
2018-02-24T08:54:33.872Z,12.90
2018-02-24T08:57:08.981Z,12.50
2018-02-24T08:59:39.745Z,13.38
2018-02-24T09:02:10.505Z,12.53
2018-02-24T09:04:41.261Z,14.40
2018-02-24T09:07:12.029Z,15.33
2018-02-24T09:09:42.796Z,11.73
2018-02-24T09:12:13.555Z,13.73
2018-02-24T09:14:45.395Z,13.20
2018-02-24T09:17:16.173Z,13.07
2018-02-24T09:19:46.958Z,13.20
2018-02-24T09:22:17.729Z,14.30
2018-02-24T09:24:48.531Z,14.87
2018-02-24T09:27:19.321Z,10.70
2018-02-24T09:29:51.591Z,15.60
2018-02-24T09:32:22.570Z,12.90
2018-02-24T09:34:53.650Z,12.63
2018-02-24T09:37:24.492Z,11.30
2018-02-24T09:39:55.256Z,9.97
2018-02-24T09:42:30.312Z,13.57
2018-02-24T09:45:03.093Z,13.27
2018-02-24T09:47:33.956Z,12.25
2018-02-24T09:50:04.883Z,12.87
2018-02-24T09:52:36.830Z,10.70
2018-02-24T09:55:07.786Z,11.82
2018-02-24T09:57:45.398Z,10.73
2018-02-24T10:00:16.177Z,11.50
2018-02-24T10:02:46.967Z,12.20
2018-02-24T10:05:17.741Z,12.23
2018-02-24T10:07:48.565Z,11.93
2018-02-24T10:10:19.344Z,12.47
2018-02-24T10:12:50.140Z,11.00
2018-02-24T10:15:20.904Z,10.60
2018-02-24T10:17:51.719Z,12.90
2018-02-24T10:20:22.485Z,11.50
2018-02-24T10:22:53.257Z,12.27
2018-02-24T10:25:24.063Z,10.67
2018-02-24T10:27:54.853Z,10.00
2018-02-24T10:30:25.613Z,10.00
2018-02-24T10:32:56.390Z,10.27
2018-02-24T10:35:27.181Z,9.30
2018-02-24T10:37:57.952Z,11.33
2018-02-24T10:40:28.769Z,8.77
2018-02-24T10:42:59.552Z,9.13
2018-02-24T10:45:30.319Z,7.30
2018-02-24T10:48:01.105Z,8.50
2018-02-24T10:50:31.878Z,8.70
2018-02-24T10:53:02.649Z,9.87
2018-02-24T10:55:33.453Z,10.03
2018-02-24T10:58:04.250Z,9.90
2018-02-24T11:00:35.046Z,10.03
2018-02-24T11:03:05.839Z,9.77
2018-02-24T11:05:36.609Z,11.87
2018-02-24T11:08:07.378Z,10.47
2018-02-24T11:10:38.187Z,9.57
2018-02-24T11:13:08.970Z,10.10
2018-02-24T11:15:39.793Z,11.67
2018-02-24T11:18:10.582Z,9.50
2018-02-24T11:20:41.362Z,9.27
2018-02-24T11:23:12.153Z,10.17
2018-02-24T11:25:42.947Z,9.77
2018-02-24T11:28:13.733Z,10.03
2018-02-24T11:30:44.538Z,8.87
2018-02-24T11:33:15.365Z,9.80
2018-02-24T11:35:46.170Z,11.63
2018-02-24T11:38:16.970Z,10.10
2018-02-24T11:40:47.765Z,8.40
2018-02-24T11:43:18.589Z,9.77
2018-02-24T11:45:49.389Z,11.87
2018-02-24T11:48:20.182Z,8.37
2018-02-24T11:50:50.976Z,9.50
2018-02-24T11:53:21.766Z,8.60
2018-02-24T11:55:52.575Z,9.57
2018-02-24T11:58:23.358Z,11.17
2018-02-24T12:00:54.149Z,7.80
2018-02-24T12:03:24.922Z,11.43
2018-02-24T12:05:55.705Z,10.30
2018-02-24T12:08:26.489Z,11.83
2018-02-24T12:10:57.272Z,9.43
2018-02-24T12:13:28.053Z,10.40
2018-02-24T12:15:58.852Z,10.30
2018-02-24T12:18:29.609Z,11.80
2018-02-24T12:21:00.390Z,10.57
2018-02-24T12:23:31.173Z,11.63
2018-02-24T12:26:01.950Z,8.13
2018-02-24T12:28:32.738Z,9.67
2018-02-24T12:31:03.521Z,11.47
2018-02-24T12:33:34.295Z,9.83
2018-02-24T12:36:05.081Z,9.93
2018-02-24T12:38:35.871Z,11.07
2018-02-24T12:41:06.743Z,10.57
2018-02-24T12:43:37.551Z,7.23
2018-02-24T12:46:08.321Z,9.80
2018-02-24T12:48:39.115Z,10.37
2018-02-24T12:51:09.949Z,9.60
2018-02-24T12:53:40.728Z,10.30
2018-02-24T12:56:11.529Z,9.03
2018-02-24T12:58:42.310Z,11.20
2018-02-24T13:01:13.119Z,9.80
2018-02-24T13:03:43.888Z,9.53
2018-02-24T13:06:14.739Z,9.03
2018-02-24T13:08:45.526Z,9.80
2018-02-24T13:11:16.328Z,12.00
2018-02-24T13:13:47.105Z,9.80
2018-02-24T13:16:17.917Z,11.10
2018-02-24T13:18:48.702Z,10.63
2018-02-24T13:21:19.482Z,9.03
2018-02-24T13:23:50.273Z,10.10
2018-02-24T13:26:21.086Z,9.27
2018-02-24T13:28:51.901Z,9.97
2018-02-24T13:31:22.741Z,9.97
2018-02-24T13:33:53.540Z,9.23
2018-02-24T13:36:24.368Z,9.30
2018-02-24T13:38:55.173Z,9.10
2018-02-24T13:41:26.052Z,8.20
2018-02-24T13:43:56.821Z,6.50
2018-02-24T13:46:27.634Z,6.43
2018-02-24T13:48:58.410Z,7.17
2018-02-24T13:51:29.193Z,7.07
2018-02-24T13:53:59.977Z,8.03
2018-02-24T13:56:30.761Z,7.23
2018-02-24T13:59:01.519Z,5.17
2018-02-24T14:01:32.321Z,5.90
2018-02-24T14:04:03.106Z,5.67
2018-02-24T14:06:33.890Z,5.93
2018-02-24T14:09:04.675Z,5.70
2018-02-24T14:11:35.469Z,5.80
2018-02-24T14:14:06.261Z,5.37
2018-02-24T14:16:37.040Z,4.47
2018-02-24T14:19:07.830Z,5.83
2018-02-24T14:21:38.600Z,5.27
2018-02-24T14:24:09.373Z,5.57
2018-02-24T14:26:40.181Z,6.80
2018-02-24T14:29:10.986Z,5.40
2018-02-24T14:31:41.748Z,5.20
2018-02-24T14:34:12.533Z,5.33
2018-02-24T14:36:43.301Z,5.17
2018-02-24T14:39:14.061Z,4.90
2018-02-24T14:41:44.845Z,7.00
2018-02-24T14:44:15.617Z,5.70
2018-02-24T14:46:46.421Z,5.40
2018-02-24T14:49:24.273Z,5.50
2018-02-24T14:51:55.160Z,4.90
2018-02-24T14:54:26.026Z,6.13
2018-02-24T14:56:56.878Z,6.57
2018-02-24T14:59:27.742Z,6.17
2018-02-24T15:02:06.661Z,5.43
2018-02-24T15:04:37.509Z,5.25
2018-02-24T15:07:08.345Z,5.70
2018-02-24T15:09:40.150Z,6.27
2018-02-24T15:12:14.401Z,6.00
2018-02-24T15:14:45.203Z,5.32
2018-02-24T15:17:15.997Z,4.13
2018-02-24T15:19:46.782Z,5.90
2018-02-24T15:22:17.549Z,6.47
2018-02-24T15:24:48.317Z,4.83
2018-02-24T15:27:19.122Z,5.90
2018-02-24T15:29:49.894Z,5.83
2018-02-24T15:32:20.690Z,5.23
2018-02-24T15:34:51.469Z,5.00
2018-02-24T15:37:22.270Z,6.27
2018-02-24T15:39:53.048Z,5.87
2018-02-24T15:42:23.838Z,6.27
2018-02-24T15:44:54.584Z,5.00
2018-02-24T15:47:25.356Z,5.73
2018-02-24T15:49:56.126Z,5.57
2018-02-24T15:52:26.906Z,5.20
2018-02-24T15:54:57.666Z,5.30
2018-02-24T15:57:28.446Z,5.03
2018-02-24T15:59:59.205Z,4.47
2018-02-24T16:02:29.969Z,3.87
2018-02-24T16:05:00.745Z,4.37
2018-02-24T16:07:31.704Z,4.23
2018-02-24T16:10:02.465Z,4.30
2018-02-24T16:12:33.233Z,4.30
2018-02-24T16:15:03.991Z,6.07
2018-02-24T16:17:34.776Z,3.83
2018-02-24T16:20:05.525Z,4.53
2018-02-24T16:22:36.313Z,3.77
2018-02-24T16:25:07.081Z,4.70
2018-02-24T16:27:37.886Z,4.07
2018-02-24T16:30:08.660Z,4.87
2018-02-24T16:32:39.445Z,3.90
2018-02-24T16:35:10.220Z,3.70
2018-02-24T16:37:40.974Z,3.27
2018-02-24T16:40:11.739Z,4.87
2018-02-24T16:42:42.501Z,3.90
2018-02-24T16:45:13.263Z,3.97
2018-02-24T16:47:44.013Z,6.30
2018-02-24T16:50:14.770Z,4.40
2018-02-24T16:52:45.531Z,3.70
2018-02-24T16:55:16.276Z,4.80
2018-02-24T16:57:47.038Z,4.30
2018-02-24T17:00:17.787Z,4.17
2018-02-24T17:02:48.557Z,5.20
2018-02-24T17:05:19.314Z,5.03
2018-02-24T17:07:50.076Z,4.77
2018-02-24T17:10:20.841Z,4.40
2018-02-24T17:12:51.605Z,5.17
2018-02-24T17:15:22.354Z,4.63
2018-02-24T17:17:53.115Z,6.67
2018-02-24T17:20:23.877Z,4.60
2018-02-24T17:22:54.680Z,7.40
2018-02-24T17:25:25.426Z,5.37
2018-02-24T17:27:56.177Z,4.63
2018-02-24T17:30:26.955Z,4.07
2018-02-24T17:32:57.718Z,5.97
2018-02-24T17:35:28.489Z,5.00
2018-02-24T17:37:59.298Z,4.30
2018-02-24T17:40:30.131Z,4.67
2018-02-24T17:43:00.870Z,4.67
2018-02-24T17:45:31.630Z,4.60
2018-02-24T17:48:02.397Z,4.70
2018-02-24T17:50:33.159Z,4.50
2018-02-24T17:53:03.965Z,3.37
2018-02-24T17:55:34.754Z,3.40
2018-02-24T17:58:05.556Z,4.03
2018-02-24T18:00:36.333Z,2.97
2018-02-24T18:03:07.125Z,3.87
2018-02-24T18:05:37.885Z,3.70
2018-02-24T18:08:08.663Z,3.10
2018-02-24T18:10:39.426Z,4.60
2018-02-24T18:13:10.198Z,3.83
2018-02-24T18:15:40.951Z,3.10
2018-02-24T18:18:11.744Z,3.40
2018-02-24T18:20:42.512Z,3.53
2018-02-24T18:23:13.269Z,2.90
2018-02-24T18:25:44.004Z,3.63
2018-02-24T18:28:14.793Z,2.97
2018-02-24T18:30:45.578Z,4.17
2018-02-24T18:33:16.357Z,3.83
2018-02-24T18:35:47.101Z,4.63
2018-02-24T18:38:17.869Z,5.17
2018-02-24T18:40:48.628Z,3.97
2018-02-24T18:43:19.414Z,3.53
2018-02-24T18:45:50.213Z,3.63
2018-02-24T18:48:21.025Z,2.93
2018-02-24T18:50:51.793Z,4.47
2018-02-24T18:53:22.561Z,5.27
2018-02-24T18:55:53.326Z,3.67
2018-02-24T18:58:24.113Z,3.70
2018-02-24T19:00:54.882Z,3.00
2018-02-24T19:03:25.653Z,3.30
2018-02-24T19:05:56.470Z,4.20
2018-02-24T19:08:27.209Z,3.00
2018-02-24T19:10:57.985Z,3.33
2018-02-24T19:13:28.733Z,3.80
2018-02-24T19:15:59.511Z,4.00
2018-02-24T19:18:30.298Z,3.53
2018-02-24T19:21:01.079Z,4.63
2018-02-24T19:23:31.870Z,3.37
2018-02-24T19:26:02.681Z,4.33
2018-02-24T19:28:33.448Z,4.87
2018-02-24T19:31:04.209Z,3.90
2018-02-24T19:33:34.998Z,4.13
2018-02-24T19:36:05.769Z,4.27
2018-02-24T19:38:36.537Z,4.00
2018-02-24T19:41:07.294Z,4.40
2018-02-24T19:43:38.074Z,4.37
2018-02-24T19:46:08.835Z,4.13
2018-02-24T19:48:46.629Z,3.90
2018-02-24T19:51:17.402Z,3.28
2018-02-24T19:53:48.198Z,4.70
2018-02-24T19:56:20.066Z,3.47
2018-02-24T19:58:50.870Z,3.12
2018-02-24T20:01:21.645Z,5.03
2018-02-24T20:03:52.509Z,3.97
2018-02-24T20:06:23.394Z,4.97
2018-02-24T20:08:54.213Z,3.97
2018-02-24T20:11:24.992Z,4.00
2018-02-24T20:13:55.851Z,4.47
2018-02-24T20:16:26.637Z,4.43
2018-02-24T20:18:57.530Z,4.60
2018-02-24T20:21:28.298Z,3.80
2018-02-24T20:23:59.071Z,3.20
2018-02-24T20:26:29.822Z,3.80
2018-02-24T20:29:00.602Z,3.87
2018-02-24T20:31:31.370Z,4.23
2018-02-24T20:34:02.137Z,4.13
2018-02-24T20:36:32.902Z,3.30
2018-02-24T20:39:03.702Z,4.90
2018-02-24T20:41:34.499Z,4.83
2018-02-24T20:44:05.280Z,4.37
2018-02-24T20:46:36.084Z,4.47
2018-02-24T20:49:06.930Z,4.10
2018-02-24T20:51:37.694Z,4.00
2018-02-24T20:54:08.458Z,3.97
2018-02-24T20:56:39.221Z,4.57
2018-02-24T20:59:10.002Z,4.37
2018-02-24T21:01:40.775Z,4.50
2018-02-24T21:04:11.566Z,3.13
2018-02-24T21:06:42.342Z,3.77
2018-02-24T21:09:13.113Z,4.13
2018-02-24T21:11:43.865Z,3.80
2018-02-24T21:14:14.665Z,4.17
2018-02-24T21:16:45.431Z,5.00
2018-02-24T21:19:20.150Z,4.10
2018-02-24T21:21:50.958Z,4.28
2018-02-24T21:24:21.750Z,4.13
2018-02-24T21:26:52.524Z,5.10
2018-02-24T21:29:23.334Z,4.70
2018-02-24T21:31:54.106Z,3.87
2018-02-24T21:34:24.890Z,3.40
2018-02-24T21:36:55.667Z,3.90
2018-02-24T21:39:26.450Z,3.87
2018-02-24T21:41:57.236Z,3.57
2018-02-24T21:44:28.028Z,3.70
2018-02-24T21:46:58.807Z,3.40
2018-02-24T21:49:29.577Z,4.23
2018-02-24T21:52:00.337Z,3.97
2018-02-24T21:54:31.142Z,5.73
2018-02-24T21:57:01.942Z,4.63
2018-02-24T21:59:32.740Z,4.70
2018-02-24T22:02:03.525Z,4.60
2018-02-24T22:04:34.350Z,3.50
2018-02-24T22:07:05.106Z,5.30
2018-02-24T22:09:35.885Z,4.03
2018-02-24T22:12:06.662Z,4.00
2018-02-24T22:14:37.454Z,4.07
2018-02-24T22:17:08.242Z,4.30
2018-02-24T22:19:39.026Z,4.10
2018-02-24T22:22:09.797Z,4.83
2018-02-24T22:24:40.623Z,4.93
2018-02-24T22:27:11.431Z,3.73
2018-02-24T22:29:42.218Z,4.60
2018-02-24T22:32:12.989Z,4.33
2018-02-24T22:34:43.768Z,3.90
2018-02-24T22:37:14.549Z,4.67
2018-02-24T22:39:45.334Z,6.50
2018-02-24T22:42:16.125Z,4.10
2018-02-24T22:44:46.921Z,3.97
2018-02-24T22:47:17.690Z,4.67
2018-02-24T22:49:48.492Z,4.80
2018-02-24T22:52:19.257Z,3.57
2018-02-24T22:54:50.063Z,4.73
2018-02-24T22:57:20.842Z,3.80
2018-02-24T22:59:51.633Z,4.00
2018-02-24T23:02:22.418Z,3.90
2018-02-24T23:04:53.229Z,4.13
2018-02-24T23:07:24.034Z,4.13
2018-02-24T23:09:54.854Z,5.33
2018-02-24T23:12:25.705Z,5.03
2018-02-24T23:14:56.494Z,5.50
2018-02-24T23:17:27.269Z,4.40
2018-02-24T23:20:05.025Z,4.10
2018-02-24T23:22:35.781Z,4.35
2018-02-24T23:25:06.581Z,5.27
2018-02-24T23:27:37.349Z,4.33
2018-02-24T23:30:08.134Z,5.63
2018-02-24T23:32:38.925Z,4.47
2018-02-24T23:35:09.715Z,5.33
2018-02-24T23:37:40.497Z,4.57
2018-02-24T23:40:11.286Z,5.37
2018-02-24T23:42:42.132Z,5.40
2018-02-24T23:45:12.898Z,5.40
2018-02-24T23:47:43.690Z,5.03
2018-02-24T23:50:14.473Z,4.33
2018-02-24T23:52:45.265Z,6.10
2018-02-24T23:55:16.047Z,5.33
2018-02-24T23:57:46.905Z,6.20
